7M7 weather

Piggott Municipal Airport
Piggott, Arkansas, United States

Public forecast

Using degrees Fahrenheit for public forecast. Weather courtesy of forecast.io.

Closest aviation weather report (METAR) to Piggott Municipal Airport

Closest report is Kennett Memorial Airport, 11.1 nm (20.5 km) SE. Retrieved 2020/06/02 01:15 UTC (16 minutes ago):

KTKX 020115Z AUTO 15003KT 10SM CLR 25/09 A3011 RMK AO2

Closest aviation forecast (TAF) to Piggott Municipal Airport

Closest forecast is Jonesboro Municipal Airport, 40.2 nm (74.5 km) SW. Retrieved 2020-06-02 00:22 UTC (1 hour ago):

TAF KJBR 012320Z 0200/0224 11003KT P6SM FEW150 FEW250 FM021700 23005KT P6SM FEW100 FEW250 AMD NOT SKED